KJKA

Jack Edwards Airport

Gulf Shores, Alabama, USA
METAR KJKA 160055Z AUTO 30005KT 10SM CLR 10/09 A3007 RMK AO2 T00960086
Observed Flight Rules
Dec-16 @ 00:55 UTC (30 minutes ago) Visual Flight Rules
Wind Visibility Clouds
300° at 5 knots 10 miles
  • Clear skies
Temperatures Readings
Current 10°C / 50°F
Dewpoint 9°C / 48°F
Humidity 94%
Altimeter 30.07" Hg
Pressure 1018 hPa
Elevation 5
METAR KJKA 160055Z AUTO 30005KT 10SM CLR 10/09 A3007 RMK AO2 T00960086
Observed Flight Rules
Dec-16 @ 00:55 UTC
(30 minutes ago)
VFR
Wind Visibility
300° at 5 knots 10 miles
Clouds
  • Clear skies
Temperature Dewpoint
10°C / 50°F 9°C / 48°F
Humidity Altimeter Pressure
94% 30.07" Hg 1018 hPa